sensor_id;sensor_type;location;lat;lon;timestamp;P1;durP1;ratioP1;P2;durP2;ratioP2
7179;SDS011;3631;42.152;24.756;2023-03-04T00:02:21;120.33;;;62.37;;
7179;SDS011;3631;42.152;24.756;2023-03-04T00:04:48;112.20;;;60.53;;
7179;SDS011;3631;42.152;24.756;2023-03-04T00:07:16;114.53;;;61.03;;
7179;SDS011;3631;42.152;24.756;2023-03-04T00:09:43;112.90;;;58.37;;
7179;SDS011;3631;42.152;24.756;2023-03-04T00:12:11;124.70;;;63.00;;
7179;SDS011;3631;42.152;24.756;2023-03-04T00:14:38;116.83;;;60.30;;
7179;SDS011;3631;42.152;24.756;2023-03-04T00:17:05;119.23;;;60.37;;
7179;SDS011;3631;42.152;24.756;2023-03-04T00:19:32;121.10;;;61.13;;
7179;SDS011;3631;42.152;24.756;2023-03-04T00:21:59;121.93;;;63.03;;
7179;SDS011;3631;42.152;24.756;2023-03-04T00:24:28;109.20;;;60.37;;
7179;SDS011;3631;42.152;24.756;2023-03-04T00:26:55;112.63;;;57.23;;
7179;SDS011;3631;42.152;24.756;2023-03-04T00:29:22;117.83;;;58.67;;
7179;SDS011;3631;42.152;24.756;2023-03-04T00:31:49;112.97;;;60.03;;
7179;SDS011;3631;42.152;24.756;2023-03-04T00:34:16;123.93;;;60.13;;
7179;SDS011;3631;42.152;24.756;2023-03-04T00:36:42;116.37;;;62.07;;
7179;SDS011;3631;42.152;24.756;2023-03-04T00:39:09;120.53;;;62.13;;
7179;SDS011;3631;42.152;24.756;2023-03-04T00:41:38;123.93;;;62.27;;
7179;SDS011;3631;42.152;24.756;2023-03-04T00:44:05;107.63;;;59.23;;
7179;SDS011;3631;42.152;24.756;2023-03-04T00:46:33;111.47;;;58.87;;
7179;SDS011;3631;42.152;24.756;2023-03-04T00:48:59;119.97;;;59.70;;
7179;SDS011;3631;42.152;24.756;2023-03-04T00:51:26;118.80;;;58.93;;
7179;SDS011;3631;42.152;24.756;2023-03-04T00:53:53;118.47;;;61.27;;
7179;SDS011;3631;42.152;24.756;2023-03-04T00:56:20;110.00;;;56.57;;
7179;SDS011;3631;42.152;24.756;2023-03-04T00:58:48;117.17;;;60.20;;
7179;SDS011;3631;42.152;24.756;2023-03-04T01:01:15;115.83;;;59.00;;
7179;SDS011;3631;42.152;24.756;2023-03-04T01:03:42;113.43;;;57.83;;
7179;SDS011;3631;42.152;24.756;2023-03-04T01:06:09;112.37;;;57.20;;
7179;SDS011;3631;42.152;24.756;2023-03-04T01:08:36;102.27;;;55.30;;
7179;SDS011;3631;42.152;24.756;2023-03-04T01:11:03;105.93;;;57.33;;
7179;SDS011;3631;42.152;24.756;2023-03-04T01:13:30;111.23;;;58.97;;
7179;SDS011;3631;42.152;24.756;2023-03-04T01:15:59;105.23;;;57.10;;
7179;SDS011;3631;42.152;24.756;2023-03-04T01:18:27;110.60;;;58.90;;
7179;SDS011;3631;42.152;24.756;2023-03-04T01:20:54;109.77;;;59.93;;
7179;SDS011;3631;42.152;24.756;2023-03-04T01:23:21;118.67;;;60.73;;
7179;SDS011;3631;42.152;24.756;2023-03-04T01:25:48;117.93;;;60.03;;
7179;SDS011;3631;42.152;24.756;2023-03-04T01:28:15;110.33;;;58.93;;
7179;SDS011;3631;42.152;24.756;2023-03-04T01:30:42;108.47;;;58.17;;
7179;SDS011;3631;42.152;24.756;2023-03-04T01:33:10;110.60;;;59.30;;
7179;SDS011;3631;42.152;24.756;2023-03-04T01:35:37;109.03;;;57.47;;
7179;SDS011;3631;42.152;24.756;2023-03-04T01:38:04;108.20;;;56.43;;
7179;SDS011;3631;42.152;24.756;2023-03-04T01:40:31;108.80;;;54.50;;
7179;SDS011;3631;42.152;24.756;2023-03-04T01:42:58;100.77;;;54.90;;
7179;SDS011;3631;42.152;24.756;2023-03-04T01:45:25;97.97;;;53.20;;
7179;SDS011;3631;42.152;24.756;2023-03-04T01:47:52;101.73;;;51.73;;
7179;SDS011;3631;42.152;24.756;2023-03-04T01:50:21;112.97;;;54.20;;
7179;SDS011;3631;42.152;24.756;2023-03-04T01:52:53;101.73;;;52.47;;
7179;SDS011;3631;42.152;24.756;2023-03-04T01:55:20;93.67;;;51.27;;
7179;SDS011;3631;42.152;24.756;2023-03-04T01:57:48;89.63;;;47.77;;
7179;SDS011;3631;42.152;24.756;2023-03-04T02:00:21;88.87;;;47.13;;
7179;SDS011;3631;42.152;24.756;2023-03-04T02:02:51;85.40;;;45.27;;
7179;SDS011;3631;42.152;24.756;2023-03-04T02:05:21;82.20;;;44.80;;
7179;SDS011;3631;42.152;24.756;2023-03-04T02:07:49;93.37;;;45.07;;
7179;SDS011;3631;42.152;24.756;2023-03-04T02:10:17;82.33;;;44.20;;
7179;SDS011;3631;42.152;24.756;2023-03-04T02:12:45;87.87;;;44.30;;
7179;SDS011;3631;42.152;24.756;2023-03-04T02:15:12;85.00;;;44.70;;
7179;SDS011;3631;42.152;24.756;2023-03-04T02:17:39;86.00;;;44.37;;
7179;SDS011;3631;42.152;24.756;2023-03-04T02:20:10;80.57;;;45.00;;
7179;SDS011;3631;42.152;24.756;2023-03-04T02:22:49;81.80;;;44.10;;
7179;SDS011;3631;42.152;24.756;2023-03-04T02:25:25;79.63;;;44.97;;
7179;SDS011;3631;42.152;24.756;2023-03-04T02:28:00;91.40;;;45.73;;
7179;SDS011;3631;42.152;24.756;2023-03-04T02:30:27;82.17;;;44.90;;
7179;SDS011;3631;42.152;24.756;2023-03-04T02:32:54;83.73;;;44.93;;
7179;SDS011;3631;42.152;24.756;2023-03-04T02:35:21;78.00;;;43.37;;
7179;SDS011;3631;42.152;24.756;2023-03-04T02:37:48;82.03;;;44.60;;
7179;SDS011;3631;42.152;24.756;2023-03-04T02:40:16;85.90;;;45.47;;
7179;SDS011;3631;42.152;24.756;2023-03-04T02:42:48;84.97;;;46.43;;
7179;SDS011;3631;42.152;24.756;2023-03-04T02:48:12;86.10;;;47.57;;
7179;SDS011;3631;42.152;24.756;2023-03-04T02:50:41;96.43;;;48.77;;
7179;SDS011;3631;42.152;24.756;2023-03-04T02:53:11;89.03;;;47.10;;
7179;SDS011;3631;42.152;24.756;2023-03-04T02:55:38;87.47;;;47.60;;
7179;SDS011;3631;42.152;24.756;2023-03-04T02:58:06;87.67;;;46.87;;
7179;SDS011;3631;42.152;24.756;2023-03-04T03:00:33;89.67;;;47.93;;
7179;SDS011;3631;42.152;24.756;2023-03-04T03:03:01;79.03;;;45.80;;
7179;SDS011;3631;42.152;24.756;2023-03-04T03:05:29;88.03;;;47.53;;
7179;SDS011;3631;42.152;24.756;2023-03-04T03:07:57;84.63;;;48.17;;
7179;SDS011;3631;42.152;24.756;2023-03-04T03:10:24;87.03;;;47.70;;
7179;SDS011;3631;42.152;24.756;2023-03-04T03:12:51;89.20;;;47.00;;
7179;SDS011;3631;42.152;24.756;2023-03-04T03:15:19;84.23;;;46.77;;
7179;SDS011;3631;42.152;24.756;2023-03-04T03:17:46;87.23;;;47.70;;
7179;SDS011;3631;42.152;24.756;2023-03-04T03:20:14;84.90;;;47.30;;
7179;SDS011;3631;42.152;24.756;2023-03-04T03:22:42;89.10;;;49.47;;
7179;SDS011;3631;42.152;24.756;2023-03-04T03:25:10;93.17;;;48.47;;
7179;SDS011;3631;42.152;24.756;2023-03-04T03:27:38;90.60;;;47.77;;
7179;SDS011;3631;42.152;24.756;2023-03-04T03:30:05;96.50;;;46.60;;
7179;SDS011;3631;42.152;24.756;2023-03-04T03:32:34;83.50;;;46.43;;
7179;SDS011;3631;42.152;24.756;2023-03-04T03:35:01;84.47;;;45.30;;
7179;SDS011;3631;42.152;24.756;2023-03-04T03:37:30;80.40;;;45.43;;
7179;SDS011;3631;42.152;24.756;2023-03-04T03:39:57;84.13;;;43.40;;
7179;SDS011;3631;42.152;24.756;2023-03-04T03:42:24;79.03;;;43.70;;
7179;SDS011;3631;42.152;24.756;2023-03-04T03:44:51;80.47;;;44.43;;
7179;SDS011;3631;42.152;24.756;2023-03-04T03:47:18;82.33;;;44.30;;
7179;SDS011;3631;42.152;24.756;2023-03-04T03:49:44;88.27;;;44.60;;
7179;SDS011;3631;42.152;24.756;2023-03-04T03:52:11;89.40;;;47.30;;
7179;SDS011;3631;42.152;24.756;2023-03-04T03:54:40;83.63;;;44.33;;
7179;SDS011;3631;42.152;24.756;2023-03-04T03:57:07;79.93;;;44.33;;
7179;SDS011;3631;42.152;24.756;2023-03-04T03:59:34;83.77;;;44.30;;
7179;SDS011;3631;42.152;24.756;2023-03-04T04:02:01;85.90;;;45.37;;
7179;SDS011;3631;42.152;24.756;2023-03-04T04:04:28;86.00;;;46.07;;
7179;SDS011;3631;42.152;24.756;2023-03-04T04:06:55;85.87;;;46.73;;
7179;SDS011;3631;42.152;24.756;2023-03-04T04:09:22;83.03;;;45.63;;
7179;SDS011;3631;42.152;24.756;2023-03-04T04:11:50;85.47;;;46.03;;
7179;SDS011;3631;42.152;24.756;2023-03-04T04:14:17;76.67;;;42.90;;
7179;SDS011;3631;42.152;24.756;2023-03-04T04:16:44;90.17;;;48.57;;
7179;SDS011;3631;42.152;24.756;2023-03-04T04:19:13;85.93;;;46.17;;
7179;SDS011;3631;42.152;24.756;2023-03-04T04:21:42;86.67;;;46.20;;
7179;SDS011;3631;42.152;24.756;2023-03-04T04:24:09;85.97;;;47.13;;
7179;SDS011;3631;42.152;24.756;2023-03-04T04:26:36;78.10;;;44.50;;
7179;SDS011;3631;42.152;24.756;2023-03-04T04:29:05;86.67;;;45.97;;
7179;SDS011;3631;42.152;24.756;2023-03-04T04:31:32;83.43;;;45.50;;
7179;SDS011;3631;42.152;24.756;2023-03-04T04:33:59;87.57;;;45.23;;
7179;SDS011;3631;42.152;24.756;2023-03-04T04:36:26;82.27;;;45.43;;
7179;SDS011;3631;42.152;24.756;2023-03-04T04:38:53;84.40;;;43.53;;
7179;SDS011;3631;42.152;24.756;2023-03-04T04:41:23;82.50;;;44.07;;
7179;SDS011;3631;42.152;24.756;2023-03-04T04:43:51;80.30;;;44.37;;
7179;SDS011;3631;42.152;24.756;2023-03-04T04:46:19;82.33;;;45.03;;
7179;SDS011;3631;42.152;24.756;2023-03-04T04:48:46;84.83;;;45.07;;
7179;SDS011;3631;42.152;24.756;2023-03-04T04:51:13;82.70;;;42.07;;
7179;SDS011;3631;42.152;24.756;2023-03-04T04:53:40;83.03;;;44.20;;
7179;SDS011;3631;42.152;24.756;2023-03-04T04:56:08;82.23;;;41.43;;
7179;SDS011;3631;42.152;24.756;2023-03-04T04:58:36;75.93;;;41.37;;
7179;SDS011;3631;42.152;24.756;2023-03-04T05:01:04;76.07;;;41.83;;
7179;SDS011;3631;42.152;24.756;2023-03-04T05:03:33;74.17;;;40.93;;
7179;SDS011;3631;42.152;24.756;2023-03-04T05:06:01;72.43;;;39.90;;
7179;SDS011;3631;42.152;24.756;2023-03-04T05:08:28;74.97;;;40.37;;
7179;SDS011;3631;42.152;24.756;2023-03-04T05:10:55;74.17;;;36.87;;
7179;SDS011;3631;42.152;24.756;2023-03-04T05:13:22;77.50;;;36.87;;
7179;SDS011;3631;42.152;24.756;2023-03-04T05:15:49;65.43;;;33.87;;
7179;SDS011;3631;42.152;24.756;2023-03-04T05:18:17;100.27;;;36.07;;
7179;SDS011;3631;42.152;24.756;2023-03-04T05:20:45;99.10;;;33.60;;
7179;SDS011;3631;42.152;24.756;2023-03-04T05:23:15;86.93;;;29.87;;
7179;SDS011;3631;42.152;24.756;2023-03-04T05:25:42;98.23;;;32.93;;
7179;SDS011;3631;42.152;24.756;2023-03-04T05:28:09;105.10;;;31.87;;
7179;SDS011;3631;42.152;24.756;2023-03-04T05:30:37;70.03;;;32.63;;
7179;SDS011;3631;42.152;24.756;2023-03-04T05:33:04;133.57;;;36.47;;
7179;SDS011;3631;42.152;24.756;2023-03-04T05:35:33;188.90;;;40.40;;
7179;SDS011;3631;42.152;24.756;2023-03-04T05:38:01;98.87;;;37.23;;
7179;SDS011;3631;42.152;24.756;2023-03-04T05:40:29;126.27;;;41.10;;
7179;SDS011;3631;42.152;24.756;2023-03-04T05:42:56;125.13;;;40.07;;
7179;SDS011;3631;42.152;24.756;2023-03-04T05:45:23;131.93;;;38.97;;
7179;SDS011;3631;42.152;24.756;2023-03-04T05:47:51;150.40;;;41.30;;
7179;SDS011;3631;42.152;24.756;2023-03-04T05:50:18;113.60;;;38.77;;
7179;SDS011;3631;42.152;24.756;2023-03-04T05:52:46;134.43;;;44.07;;
7179;SDS011;3631;42.152;24.756;2023-03-04T05:55:15;106.67;;;40.37;;
7179;SDS011;3631;42.152;24.756;2023-03-04T05:57:43;110.60;;;44.07;;
7179;SDS011;3631;42.152;24.756;2023-03-04T06:00:11;107.30;;;43.10;;
7179;SDS011;3631;42.152;24.756;2023-03-04T06:02:39;102.10;;;46.30;;
7179;SDS011;3631;42.152;24.756;2023-03-04T06:05:07;145.87;;;44.93;;
7179;SDS011;3631;42.152;24.756;2023-03-04T06:07:35;117.87;;;44.27;;
7179;SDS011;3631;42.152;24.756;2023-03-04T06:10:02;110.43;;;41.40;;
7179;SDS011;3631;42.152;24.756;2023-03-04T06:12:31;78.07;;;38.73;;
7179;SDS011;3631;42.152;24.756;2023-03-04T06:14:59;70.13;;;35.70;;
7179;SDS011;3631;42.152;24.756;2023-03-04T06:17:27;75.07;;;34.73;;
7179;SDS011;3631;42.152;24.756;2023-03-04T06:19:54;95.17;;;36.67;;
7179;SDS011;3631;42.152;24.756;2023-03-04T06:22:21;74.23;;;34.17;;
7179;SDS011;3631;42.152;24.756;2023-03-04T06:24:48;72.37;;;35.17;;
7179;SDS011;3631;42.152;24.756;2023-03-04T06:27:15;72.57;;;34.83;;
7179;SDS011;3631;42.152;24.756;2023-03-04T06:29:43;76.37;;;34.67;;
7179;SDS011;3631;42.152;24.756;2023-03-04T06:32:10;75.47;;;36.10;;
7179;SDS011;3631;42.152;24.756;2023-03-04T06:34:37;84.77;;;35.83;;
7179;SDS011;3631;42.152;24.756;2023-03-04T06:37:04;67.27;;;35.53;;
7179;SDS011;3631;42.152;24.756;2023-03-04T06:39:31;79.53;;;37.20;;
7179;SDS011;3631;42.152;24.756;2023-03-04T06:41:58;76.00;;;34.60;;
7179;SDS011;3631;42.152;24.756;2023-03-04T06:44:25;82.73;;;39.43;;
7179;SDS011;3631;42.152;24.756;2023-03-04T06:46:53;81.27;;;37.47;;
7179;SDS011;3631;42.152;24.756;2023-03-04T06:49:20;84.30;;;38.13;;
7179;SDS011;3631;42.152;24.756;2023-03-04T06:51:47;80.77;;;38.00;;
7179;SDS011;3631;42.152;24.756;2023-03-04T06:54:14;76.50;;;37.63;;
7179;SDS011;3631;42.152;24.756;2023-03-04T06:56:41;77.70;;;38.00;;
7179;SDS011;3631;42.152;24.756;2023-03-04T06:59:08;75.90;;;37.13;;
7179;SDS011;3631;42.152;24.756;2023-03-04T07:01:35;88.90;;;40.13;;
7179;SDS011;3631;42.152;24.756;2023-03-04T07:04:03;99.40;;;42.23;;
7179;SDS011;3631;42.152;24.756;2023-03-04T07:06:31;80.97;;;40.03;;
7179;SDS011;3631;42.152;24.756;2023-03-04T07:08:58;80.97;;;39.30;;
7179;SDS011;3631;42.152;24.756;2023-03-04T07:11:25;89.80;;;39.77;;
7179;SDS011;3631;42.152;24.756;2023-03-04T07:13:52;82.27;;;40.80;;
7179;SDS011;3631;42.152;24.756;2023-03-04T07:16:20;79.93;;;38.73;;
7179;SDS011;3631;42.152;24.756;2023-03-04T07:18:48;88.03;;;40.63;;
7179;SDS011;3631;42.152;24.756;2023-03-04T07:21:17;90.17;;;41.27;;
7179;SDS011;3631;42.152;24.756;2023-03-04T07:23:44;87.43;;;42.03;;
7179;SDS011;3631;42.152;24.756;2023-03-04T07:26:12;80.77;;;39.87;;
7179;SDS011;3631;42.152;24.756;2023-03-04T07:28:39;86.07;;;42.70;;
7179;SDS011;3631;42.152;24.756;2023-03-04T07:31:08;91.10;;;43.57;;
7179;SDS011;3631;42.152;24.756;2023-03-04T07:33:36;85.70;;;41.57;;
7179;SDS011;3631;42.152;24.756;2023-03-04T07:36:03;94.23;;;42.97;;
7179;SDS011;3631;42.152;24.756;2023-03-04T07:38:33;86.20;;;44.67;;
7179;SDS011;3631;42.152;24.756;2023-03-04T07:41:00;97.53;;;49.07;;
7179;SDS011;3631;42.152;24.756;2023-03-04T07:43:27;93.03;;;46.33;;
7179;SDS011;3631;42.152;24.756;2023-03-04T07:45:58;89.23;;;46.00;;
7179;SDS011;3631;42.152;24.756;2023-03-04T07:48:26;93.37;;;44.47;;
7179;SDS011;3631;42.152;24.756;2023-03-04T07:53:44;83.27;;;43.07;;
7179;SDS011;3631;42.152;24.756;2023-03-04T07:56:13;82.87;;;41.83;;
7179;SDS011;3631;42.152;24.756;2023-03-04T07:58:42;87.03;;;41.60;;
7179;SDS011;3631;42.152;24.756;2023-03-04T08:01:09;92.53;;;43.80;;
7179;SDS011;3631;42.152;24.756;2023-03-04T08:03:37;83.33;;;42.53;;
7179;SDS011;3631;42.152;24.756;2023-03-04T08:06:05;83.43;;;39.87;;
7179;SDS011;3631;42.152;24.756;2023-03-04T08:08:33;80.40;;;40.53;;
7179;SDS011;3631;42.152;24.756;2023-03-04T08:11:03;85.33;;;42.23;;
7179;SDS011;3631;42.152;24.756;2023-03-04T08:13:31;80.83;;;41.73;;
7179;SDS011;3631;42.152;24.756;2023-03-04T08:15:58;89.50;;;42.47;;
7179;SDS011;3631;42.152;24.756;2023-03-04T08:18:25;94.60;;;41.73;;
7179;SDS011;3631;42.152;24.756;2023-03-04T08:20:52;80.20;;;41.97;;
7179;SDS011;3631;42.152;24.756;2023-03-04T08:23:19;87.13;;;43.03;;
7179;SDS011;3631;42.152;24.756;2023-03-04T08:25:46;89.17;;;44.83;;
7179;SDS011;3631;42.152;24.756;2023-03-04T08:28:14;85.23;;;43.33;;
7179;SDS011;3631;42.152;24.756;2023-03-04T08:30:42;144.63;;;59.07;;
7179;SDS011;3631;42.152;24.756;2023-03-04T08:33:09;125.00;;;58.17;;
7179;SDS011;3631;42.152;24.756;2023-03-04T08:35:36;114.23;;;54.17;;
7179;SDS011;3631;42.152;24.756;2023-03-04T08:38:04;122.00;;;68.53;;
7179;SDS011;3631;42.152;24.756;2023-03-04T08:40:31;104.83;;;53.20;;
7179;SDS011;3631;42.152;24.756;2023-03-04T08:42:58;100.97;;;50.30;;
7179;SDS011;3631;42.152;24.756;2023-03-04T08:45:26;112.73;;;53.03;;
7179;SDS011;3631;42.152;24.756;2023-03-04T08:47:53;106.83;;;53.27;;
7179;SDS011;3631;42.152;24.756;2023-03-04T08:50:20;96.00;;;49.30;;
7179;SDS011;3631;42.152;24.756;2023-03-04T08:52:47;108.37;;;52.43;;
7179;SDS011;3631;42.152;24.756;2023-03-04T08:55:14;104.53;;;50.10;;
7179;SDS011;3631;42.152;24.756;2023-03-04T08:57:41;91.20;;;48.30;;
7179;SDS011;3631;42.152;24.756;2023-03-04T09:00:08;84.00;;;47.13;;
7179;SDS011;3631;42.152;24.756;2023-03-04T09:02:37;82.23;;;46.13;;
7179;SDS011;3631;42.152;24.756;2023-03-04T09:05:05;86.30;;;48.27;;
7179;SDS011;3631;42.152;24.756;2023-03-04T09:07:33;93.23;;;47.80;;
7179;SDS011;3631;42.152;24.756;2023-03-04T09:09:59;96.43;;;48.33;;
7179;SDS011;3631;42.152;24.756;2023-03-04T09:12:26;93.47;;;47.37;;
7179;SDS011;3631;42.152;24.756;2023-03-04T09:14:53;90.87;;;49.33;;
7179;SDS011;3631;42.152;24.756;2023-03-04T09:17:20;101.63;;;50.67;;
7179;SDS011;3631;42.152;24.756;2023-03-04T09:19:49;98.20;;;49.90;;
7179;SDS011;3631;42.152;24.756;2023-03-04T09:22:15;119.07;;;61.38;;
7179;SDS011;3631;42.152;24.756;2023-03-04T09:24:42;118.77;;;58.33;;
7179;SDS011;3631;42.152;24.756;2023-03-04T09:27:09;111.80;;;55.80;;
7179;SDS011;3631;42.152;24.756;2023-03-04T09:29:36;111.90;;;55.23;;
7179;SDS011;3631;42.152;24.756;2023-03-04T09:32:03;105.60;;;50.17;;
7179;SDS011;3631;42.152;24.756;2023-03-04T09:34:30;93.43;;;50.03;;
7179;SDS011;3631;42.152;24.756;2023-03-04T09:36:59;100.23;;;48.97;;
7179;SDS011;3631;42.152;24.756;2023-03-04T09:39:26;100.33;;;50.20;;
7179;SDS011;3631;42.152;24.756;2023-03-04T09:41:54;92.60;;;50.57;;
7179;SDS011;3631;42.152;24.756;2023-03-04T09:44:25;110.00;;;54.07;;
7179;SDS011;3631;42.152;24.756;2023-03-04T09:46:54;115.40;;;53.20;;
7179;SDS011;3631;42.152;24.756;2023-03-04T09:49:24;111.60;;;54.53;;
7179;SDS011;3631;42.152;24.756;2023-03-04T09:51:54;107.30;;;52.40;;
7179;SDS011;3631;42.152;24.756;2023-03-04T09:54:35;103.70;;;52.80;;
7179;SDS011;3631;42.152;24.756;2023-03-04T09:57:22;90.33;;;49.97;;
7179;SDS011;3631;42.152;24.756;2023-03-04T09:59:59;99.67;;;49.40;;
7179;SDS011;3631;42.152;24.756;2023-03-04T10:02:35;98.33;;;52.70;;
7179;SDS011;3631;42.152;24.756;2023-03-04T10:05:12;98.60;;;51.80;;
7179;SDS011;3631;42.152;24.756;2023-03-04T10:07:44;90.00;;;49.20;;
7179;SDS011;3631;42.152;24.756;2023-03-04T10:10:16;66.57;;;42.27;;
7179;SDS011;3631;42.152;24.756;2023-03-04T10:12:47;64.07;;;38.87;;
7179;SDS011;3631;42.152;24.756;2023-03-04T10:15:17;55.70;;;36.40;;
7179;SDS011;3631;42.152;24.756;2023-03-04T10:17:49;60.33;;;35.40;;
7179;SDS011;3631;42.152;24.756;2023-03-04T10:20:23;52.93;;;34.10;;
7179;SDS011;3631;42.152;24.756;2023-03-04T10:22:55;51.20;;;34.47;;
7179;SDS011;3631;42.152;24.756;2023-03-04T10:25:26;53.40;;;32.83;;
7179;SDS011;3631;42.152;24.756;2023-03-04T10:27:56;49.43;;;31.90;;
7179;SDS011;3631;42.152;24.756;2023-03-04T10:30:29;49.07;;;32.73;;
7179;SDS011;3631;42.152;24.756;2023-03-04T10:33:04;46.17;;;32.17;;
7179;SDS011;3631;42.152;24.756;2023-03-04T10:35:38;54.20;;;33.20;;
7179;SDS011;3631;42.152;24.756;2023-03-04T10:38:09;54.50;;;34.47;;
7179;SDS011;3631;42.152;24.756;2023-03-04T10:40:40;60.77;;;36.13;;
7179;SDS011;3631;42.152;24.756;2023-03-04T10:43:12;54.03;;;33.60;;
7179;SDS011;3631;42.152;24.756;2023-03-04T10:45:41;54.30;;;34.00;;
7179;SDS011;3631;42.152;24.756;2023-03-04T10:48:16;53.33;;;33.20;;
7179;SDS011;3631;42.152;24.756;2023-03-04T10:50:45;51.37;;;34.53;;
7179;SDS011;3631;42.152;24.756;2023-03-04T10:53:20;58.87;;;36.40;;
7179;SDS011;3631;42.152;24.756;2023-03-04T10:55:55;64.43;;;37.57;;
7179;SDS011;3631;42.152;24.756;2023-03-04T10:58:22;62.07;;;38.07;;
7179;SDS011;3631;42.152;24.756;2023-03-04T11:00:51;59.47;;;37.80;;
7179;SDS011;3631;42.152;24.756;2023-03-04T11:03:30;57.10;;;36.03;;
7179;SDS011;3631;42.152;24.756;2023-03-04T11:06:03;54.20;;;35.73;;
7179;SDS011;3631;42.152;24.756;2023-03-04T11:08:31;64.50;;;39.33;;
7179;SDS011;3631;42.152;24.756;2023-03-04T11:10:59;64.07;;;39.97;;
7179;SDS011;3631;42.152;24.756;2023-03-04T11:13:27;62.80;;;40.47;;
7179;SDS011;3631;42.152;24.756;2023-03-04T11:15:56;62.20;;;39.17;;
7179;SDS011;3631;42.152;24.756;2023-03-04T11:18:26;62.33;;;37.13;;
7179;SDS011;3631;42.152;24.756;2023-03-04T11:21:01;62.63;;;39.53;;
7179;SDS011;3631;42.152;24.756;2023-03-04T11:23:31;68.37;;;41.10;;
7179;SDS011;3631;42.152;24.756;2023-03-04T11:26:03;64.40;;;39.87;;
7179;SDS011;3631;42.152;24.756;2023-03-04T11:28:38;67.57;;;40.90;;
7179;SDS011;3631;42.152;24.756;2023-03-04T11:31:11;60.43;;;39.50;;
7179;SDS011;3631;42.152;24.756;2023-03-04T11:33:42;73.00;;;42.20;;
7179;SDS011;3631;42.152;24.756;2023-03-04T11:36:20;69.27;;;38.93;;
7179;SDS011;3631;42.152;24.756;2023-03-04T11:38:54;56.80;;;35.10;;
7179;SDS011;3631;42.152;24.756;2023-03-04T11:41:24;77.27;;;46.37;;
7179;SDS011;3631;42.152;24.756;2023-03-04T11:43:56;67.10;;;40.77;;
7179;SDS011;3631;42.152;24.756;2023-03-04T11:46:28;65.40;;;38.70;;
7179;SDS011;3631;42.152;24.756;2023-03-04T11:49:30;61.17;;;38.60;;
7179;SDS011;3631;42.152;24.756;2023-03-04T11:52:30;56.00;;;35.77;;
7179;SDS011;3631;42.152;24.756;2023-03-04T11:55:11;68.60;;;40.30;;
7179;SDS011;3631;42.152;24.756;2023-03-04T11:57:54;62.57;;;39.53;;
7179;SDS011;3631;42.152;24.756;2023-03-04T12:00:32;55.93;;;35.53;;
7179;SDS011;3631;42.152;24.756;2023-03-04T12:06:01;55.47;;;33.20;;
7179;SDS011;3631;42.152;24.756;2023-03-04T12:11:28;50.97;;;33.47;;
7179;SDS011;3631;42.152;24.756;2023-03-04T12:22:49;55.47;;;32.47;;
7179;SDS011;3631;42.152;24.756;2023-03-04T12:28:19;52.13;;;31.37;;
7179;SDS011;3631;42.152;24.756;2023-03-04T12:31:16;45.37;;;32.37;;
7179;SDS011;3631;42.152;24.756;2023-03-04T12:37:02;44.00;;;28.13;;
7179;SDS011;3631;42.152;24.756;2023-03-04T12:39:51;43.13;;;27.90;;
7179;SDS011;3631;42.152;24.756;2023-03-04T12:42:34;43.20;;;28.37;;
7179;SDS011;3631;42.152;24.756;2023-03-04T12:45:07;41.40;;;28.20;;
7179;SDS011;3631;42.152;24.756;2023-03-04T12:47:47;35.83;;;26.13;;
7179;SDS011;3631;42.152;24.756;2023-03-04T12:50:24;39.33;;;26.40;;
7179;SDS011;3631;42.152;24.756;2023-03-04T12:53:05;53.20;;;31.90;;
7179;SDS011;3631;42.152;24.756;2023-03-04T12:55:39;41.67;;;28.23;;
7179;SDS011;3631;42.152;24.756;2023-03-04T12:58:12;38.87;;;25.83;;
7179;SDS011;3631;42.152;24.756;2023-03-04T13:00:47;38.77;;;25.23;;
7179;SDS011;3631;42.152;24.756;2023-03-04T13:03:22;60.90;;;33.17;;
7179;SDS011;3631;42.152;24.756;2023-03-04T13:06:01;46.27;;;29.67;;
7179;SDS011;3631;42.152;24.756;2023-03-04T13:08:41;58.80;;;34.20;;
7179;SDS011;3631;42.152;24.756;2023-03-04T13:14:21;63.10;;;35.43;;
7179;SDS011;3631;42.152;24.756;2023-03-04T13:16:50;71.37;;;40.20;;
7179;SDS011;3631;42.152;24.756;2023-03-04T13:22:27;38.30;;;24.97;;
7179;SDS011;3631;42.152;24.756;2023-03-04T13:24:58;49.53;;;28.90;;
7179;SDS011;3631;42.152;24.756;2023-03-04T13:27:48;50.47;;;28.67;;
7179;SDS011;3631;42.152;24.756;2023-03-04T13:33:38;44.67;;;26.50;;
7179;SDS011;3631;42.152;24.756;2023-03-04T13:39:29;43.57;;;26.53;;
7179;SDS011;3631;42.152;24.756;2023-03-04T13:41:58;62.60;;;33.47;;
7179;SDS011;3631;42.152;24.756;2023-03-04T13:44:34;32.80;;;21.00;;
7179;SDS011;3631;42.152;24.756;2023-03-04T13:47:16;25.73;;;18.87;;
7179;SDS011;3631;42.152;24.756;2023-03-04T13:49:45;32.73;;;20.77;;
7179;SDS011;3631;42.152;24.756;2023-03-04T13:55:30;25.20;;;18.90;;
7179;SDS011;3631;42.152;24.756;2023-03-04T13:58:00;28.27;;;19.87;;
7179;SDS011;3631;42.152;24.756;2023-03-04T14:00:29;22.20;;;17.77;;
7179;SDS011;3631;42.152;24.756;2023-03-04T14:03:10;28.83;;;18.60;;
7179;SDS011;3631;42.152;24.756;2023-03-04T14:05:38;26.90;;;19.00;;
7179;SDS011;3631;42.152;24.756;2023-03-04T14:08:19;27.70;;;18.70;;
7179;SDS011;3631;42.152;24.756;2023-03-04T14:10:53;25.90;;;18.60;;
7179;SDS011;3631;42.152;24.756;2023-03-04T14:13:21;24.00;;;19.00;;
7179;SDS011;3631;42.152;24.756;2023-03-04T14:15:53;24.80;;;19.53;;
7179;SDS011;3631;42.152;24.756;2023-03-04T14:18:21;28.50;;;20.87;;
7179;SDS011;3631;42.152;24.756;2023-03-04T14:20:50;28.80;;;20.03;;
7179;SDS011;3631;42.152;24.756;2023-03-04T14:23:25;32.43;;;22.20;;
7179;SDS011;3631;42.152;24.756;2023-03-04T14:26:04;24.23;;;18.63;;
7179;SDS011;3631;42.152;24.756;2023-03-04T14:28:32;28.07;;;20.87;;
7179;SDS011;3631;42.152;24.756;2023-03-04T14:31:09;27.02;;;22.77;;
7179;SDS011;3631;42.152;24.756;2023-03-04T14:33:43;29.87;;;21.67;;
7179;SDS011;3631;42.152;24.756;2023-03-04T14:36:14;33.13;;;22.27;;
7179;SDS011;3631;42.152;24.756;2023-03-04T14:38:50;28.80;;;19.80;;
7179;SDS011;3631;42.152;24.756;2023-03-04T14:41:20;28.43;;;20.93;;
7179;SDS011;3631;42.152;24.756;2023-03-04T14:43:54;30.63;;;20.90;;
7179;SDS011;3631;42.152;24.756;2023-03-04T14:46:29;31.17;;;20.73;;
7179;SDS011;3631;42.152;24.756;2023-03-04T14:49:00;34.07;;;23.63;;
7179;SDS011;3631;42.152;24.756;2023-03-04T14:51:29;31.13;;;22.20;;
7179;SDS011;3631;42.152;24.756;2023-03-04T14:54:03;34.83;;;23.50;;
7179;SDS011;3631;42.152;24.756;2023-03-04T14:56:31;30.00;;;21.63;;
7179;SDS011;3631;42.152;24.756;2023-03-04T14:59:00;30.23;;;21.77;;
7179;SDS011;3631;42.152;24.756;2023-03-04T15:01:28;34.97;;;23.07;;
7179;SDS011;3631;42.152;24.756;2023-03-04T15:03:59;61.57;;;37.27;;
7179;SDS011;3631;42.152;24.756;2023-03-04T15:06:28;44.63;;;29.47;;
7179;SDS011;3631;42.152;24.756;2023-03-04T15:08:57;45.93;;;28.87;;
7179;SDS011;3631;42.152;24.756;2023-03-04T15:11:28;37.53;;;25.60;;
7179;SDS011;3631;42.152;24.756;2023-03-04T15:13:57;35.07;;;22.93;;
7179;SDS011;3631;42.152;24.756;2023-03-04T15:16:26;35.70;;;22.93;;
7179;SDS011;3631;42.152;24.756;2023-03-04T15:18:55;40.20;;;27.77;;
7179;SDS011;3631;42.152;24.756;2023-03-04T15:21:28;54.33;;;34.00;;
7179;SDS011;3631;42.152;24.756;2023-03-04T15:23:58;40.07;;;26.83;;
7179;SDS011;3631;42.152;24.756;2023-03-04T15:26:28;38.57;;;25.73;;
7179;SDS011;3631;42.152;24.756;2023-03-04T15:28:56;37.17;;;26.00;;